Time;durP1;ratioP1;P1;durP2;ratioP2;P2;SDS_P1;SDS_P2;PMS_P1;PMS_P2;Temp;Humidity;BMP_temperature;BMP_pressure;BME280_temperature;BME280_humidity;BME280_pressure;Samples;Min_cycle;Max_cycle;Signal;HPM_P1;HPM_P2
2023/05/03 00:00:59;;;;;;;14.45;9.75;;;;;;;11.21;100.00;99898.69;5159779;27;20055;-62
2023/05/03 00:03:25;;;;;;;14.20;8.80;;;;;;;11.21;100.00;99884.97;5159339;27;20141;-61
2023/05/03 00:05:51;;;;;;;13.25;8.82;;;;;;;11.44;100.00;99885.19;5159442;27;20062;-60
2023/05/03 00:08:17;;;;;;;14.88;8.40;;;;;;;11.34;100.00;99899.44;5159406;27;20092;-63
2023/05/03 00:10:43;;;;;;;14.38;9.25;;;;;;;11.32;100.00;99902.50;5159406;27;20054;-63
2023/05/03 00:13:09;;;;;;;17.40;8.93;;;;;;;11.36;100.00;99913.59;5159528;27;20043;-61
2023/05/03 00:15:35;;;;;;;13.77;8.23;;;;;;;11.20;100.00;99923.75;5159116;27;20138;-64
2023/05/03 00:18:01;;;;;;;15.70;7.90;;;;;;;11.29;100.00;99922.44;5159455;27;20373;-64
2023/05/03 00:20:27;;;;;;;11.48;7.60;;;;;;;11.26;100.00;99912.19;5159054;27;20086;-58
2023/05/03 00:22:53;;;;;;;12.30;7.75;;;;;;;11.31;100.00;99916.59;5159382;27;20054;-54
2023/05/03 00:25:19;;;;;;;9.68;7.80;;;;;;;11.35;100.00;99911.19;5159025;27;20046;-55
2023/05/03 00:27:46;;;;;;;15.85;8.63;;;;;;;11.22;100.00;99924.19;5159424;27;20340;-54
2023/05/03 00:30:12;;;;;;;11.90;8.45;;;;;;;11.30;100.00;99920.50;5158782;27;20055;-58
2023/05/03 00:32:38;;;;;;;16.17;8.27;;;;;;;11.36;100.00;99926.50;5159082;27;20133;-54
2023/05/03 00:35:05;;;;;;;14.15;7.82;;;;;;;11.46;100.00;99932.31;5159139;27;20142;-56
2023/05/03 00:37:31;;;;;;;12.40;8.57;;;;;;;11.23;100.00;99929.34;5159025;27;20050;-65
2023/05/03 00:39:57;;;;;;;16.75;7.40;;;;;;;11.37;100.00;99928.94;5159036;27;20452;-62
2023/05/03 00:42:23;;;;;;;12.90;8.32;;;;;;;11.34;100.00;99931.56;5158895;27;20074;-59
2023/05/03 00:44:49;;;;;;;12.85;8.05;;;;;;;11.36;100.00;99926.50;5158895;27;20050;-59
2023/05/03 00:47:15;;;;;;;11.85;7.70;;;;;;;11.39;100.00;99928.56;5158634;27;20133;-60
2023/05/03 00:49:42;;;;;;;13.07;7.93;;;;;;;11.24;100.00;99930.94;5159017;27;20145;-57
2023/05/03 00:52:08;;;;;;;12.30;7.88;;;;;;;11.38;100.00;99927.78;5158631;27;20145;-65
2023/05/03 00:54:34;;;;;;;11.30;7.40;;;;;;;11.45;100.00;99932.66;5158462;27;20438;-56
2023/05/03 00:57:01;;;;;;;10.15;7.00;;;;;;;11.42;100.00;99925.91;5158492;27;20070;-58
2023/05/03 00:59:27;;;;;;;11.60;7.63;;;;;;;11.34;100.00;99915.91;5158846;27;20047;-64
2023/05/03 01:01:54;;;;;;;9.95;7.72;;;;;;;11.33;100.00;99917.06;5158411;27;20051;-55
2023/05/03 01:04:20;;;;;;;10.98;7.30;;;;;;;11.10;100.00;99927.81;5158358;27;20545;-56
2023/05/03 01:06:54;;;;;;;14.50;7.88;;;;;;;11.27;100.00;99924.75;5158337;27;20051;-53
2023/05/03 01:09:30;;;;;;;11.48;8.40;;;;;;;11.14;100.00;99928.69;5158488;27;20055;-56
2023/05/03 01:12:05;;;;;;;10.63;8.18;;;;;;;11.22;100.00;99924.97;5158642;27;20043;-56
2023/05/03 01:14:40;;;;;;;14.60;8.10;;;;;;;11.19;100.00;99933.91;5158462;27;20054;-59
2023/05/03 01:17:11;;;;;;;15.90;7.55;;;;;;;11.24;100.00;99925.44;5158662;27;20051;-64
2023/05/03 01:19:43;;;;;;;12.38;7.85;;;;;;;11.17;100.00;99930.75;5158133;27;20046;-58
2023/05/03 01:22:16;;;;;;;13.55;8.00;;;;;;;11.15;100.00;99929.50;5158380;27;20047;-56
2023/05/03 01:24:46;;;;;;;12.48;7.22;;;;;;;11.15;100.00;99933.03;5157787;27;20060;-59
2023/05/03 01:27:13;;;;;;;11.05;7.55;;;;;;;11.13;100.00;99935.34;5158024;27;20050;-64
2023/05/03 01:29:39;;;;;;;10.18;7.65;;;;;;;11.19;100.00;99931.16;5158169;27;20050;-62
2023/05/03 01:32:13;;;;;;;16.00;7.40;;;;;;;11.06;100.00;99933.19;5158124;27;20062;-65
2023/05/03 01:34:42;;;;;;;;;;;;;;;11.06;100.00;99924.13;5158805;27;20054;-64
2023/05/03 01:37:10;;;;;;;14.73;8.57;;;;;;;10.96;100.00;99927.38;5157933;27;20014;-64
2023/05/03 01:39:43;;;;;;;16.85;8.77;;;;;;;11.03;100.00;99925.66;5158341;27;20055;-56
2023/05/03 01:42:09;;;;;;;10.30;7.80;;;;;;;11.02;100.00;99928.72;5157918;27;20137;-62
2023/05/03 01:44:38;;;;;;;10.73;8.85;;;;;;;10.95;100.00;99925.78;5158295;27;20361;-58
2023/05/03 01:47:04;;;;;;;11.63;8.00;;;;;;;11.03;100.00;99928.41;5158094;27;20043;-63
2023/05/03 01:49:30;;;;;;;13.40;8.57;;;;;;;10.97;100.00;99918.03;5157777;27;20410;-57
2023/05/03 01:51:56;;;;;;;11.90;8.70;;;;;;;10.88;100.00;99914.63;5158092;27;20050;-59
2023/05/03 01:54:22;;;;;;;14.80;9.15;;;;;;;10.96;100.00;99921.88;5157902;27;20511;-55
2023/05/03 01:56:48;;;;;;;14.15;8.68;;;;;;;10.93;100.00;99922.59;5158030;27;20050;-59
2023/05/03 01:59:14;;;;;;;12.75;9.30;;;;;;;10.98;100.00;99912.16;5157597;27;20420;-60
2023/05/03 02:01:40;;;;;;;12.88;8.70;;;;;;;10.94;100.00;99911.28;5158076;27;20082;-61
2023/05/03 02:04:06;;;;;;;12.27;9.07;;;;;;;10.95;100.00;99906.59;5157703;27;20046;-63
2023/05/03 02:06:32;;;;;;;10.90;7.95;;;;;;;10.93;100.00;99917.09;5157955;27;20065;-63
2023/05/03 02:08:58;;;;;;;16.55;9.98;;;;;;;10.77;100.00;99909.63;5157587;27;20149;-63
2023/05/03 02:11:24;;;;;;;12.93;9.02;;;;;;;10.80;100.00;99903.44;5157987;27;20070;-60
2023/05/03 02:13:50;;;;;;;15.43;9.43;;;;;;;10.73;100.00;99908.72;5157365;27;20051;-56
2023/05/03 02:16:16;;;;;;;11.80;8.35;;;;;;;10.91;100.00;99911.19;5157356;27;20372;-57
2023/05/03 02:18:43;;;;;;;17.45;9.27;;;;;;;10.81;100.00;99910.53;5157758;27;20117;-63
2023/05/03 02:21:09;;;;;;;13.85;9.25;;;;;;;10.76;100.00;99910.78;5157324;27;20054;-59
2023/05/03 02:23:35;;;;;;;17.23;9.77;;;;;;;10.72;100.00;99906.31;5157700;27;20141;-55
2023/05/03 02:26:01;;;;;;;13.15;9.00;;;;;;;10.76;100.00;99905.28;5157434;27;20085;-59
2023/05/03 02:28:27;;;;;;;12.82;9.20;;;;;;;10.76;100.00;99910.78;5157537;27;20046;-63
2023/05/03 02:30:53;;;;;;;11.80;8.50;;;;;;;10.84;100.00;99906.28;5157302;27;20134;-64
2023/05/03 02:33:19;;;;;;;15.82;8.60;;;;;;;10.85;100.00;99894.16;5157632;27;20043;-61
2023/05/03 02:35:46;;;;;;;14.18;9.45;;;;;;;10.78;100.00;99907.69;5157176;27;20043;-60
2023/05/03 02:38:12;;;;;;;19.77;9.60;;;;;;;10.58;100.00;99899.28;5161186;27;20069;-56
2023/05/03 02:40:37;;;;;;;14.70;9.40;;;;;;;10.62;100.00;99887.63;5160645;27;20415;-60
2023/05/03 02:43:04;;;;;;;13.88;9.07;;;;;;;10.59;100.00;99884.41;5161111;27;20062;-62
2023/05/03 02:45:30;;;;;;;12.43;9.02;;;;;;;10.51;100.00;99868.13;5160847;27;20061;-62
2023/05/03 02:47:55;;;;;;;16.02;9.95;;;;;;;10.40;100.00;99856.06;5160605;27;20062;-58
2023/05/03 02:50:21;;;;;;;14.13;9.55;;;;;;;10.54;100.00;99859.22;5160879;27;20114;-53
2023/05/03 02:52:48;;;;;;;16.60;9.65;;;;;;;10.21;100.00;99840.97;5161338;27;20061;-57
2023/05/03 02:55:15;;;;;;;16.55;9.50;;;;;;;9.89;100.00;99837.25;5163064;27;20054;-58
2023/05/03 02:57:41;;;;;;;8.27;6.60;;;;;;;9.54;100.00;99842.41;5162693;27;20047;-65
2023/05/03 03:00:09;;;;;;;9.27;5.88;;;;;;;9.18;100.00;99902.19;5160927;27;20137;-62
2023/05/03 03:02:35;;;;;;;11.30;5.13;;;;;;;9.16;100.00;99928.28;5160349;27;20057;-54
2023/05/03 03:05:01;;;;;;;7.20;4.55;;;;;;;8.88;100.00;99969.06;5160685;27;20137;-55
2023/05/03 03:07:27;;;;;;;11.30;5.45;;;;;;;8.80;100.00;99995.34;5160243;27;20043;-63
2023/05/03 03:09:54;;;;;;;9.02;4.25;;;;;;;8.69;100.00;100005.84;5160733;27;20110;-62
2023/05/03 03:12:20;;;;;;;8.15;4.80;;;;;;;8.59;100.00;100032.78;5160124;27;20442;-63
2023/05/03 03:14:46;;;;;;;6.55;4.32;;;;;;;8.45;100.00;100028.34;5160252;27;20070;-64
2023/05/03 03:17:12;;;;;;;6.45;4.97;;;;;;;8.21;100.00;100012.53;5160381;27;20141;-64
2023/05/03 03:19:38;;;;;;;11.82;4.78;;;;;;;7.74;100.00;99995.34;5160201;27;20381;-58
2023/05/03 03:22:04;;;;;;;7.00;4.10;;;;;;;7.84;100.00;99978.63;5160468;27;20054;-57
2023/05/03 03:24:30;;;;;;;6.32;4.25;;;;;;;7.82;100.00;99963.69;5160196;27;20046;-59
2023/05/03 03:26:57;;;;;;;4.70;4.15;;;;;;;7.41;100.00;99959.63;5160113;27;20146;-63
2023/05/03 03:29:23;;;;;;;4.30;3.72;;;;;;;7.13;100.00;99937.34;5160038;27;20054;-54
2023/05/03 03:31:49;;;;;;;7.00;3.17;;;;;;;7.15;100.00;99911.38;5160259;27;20061;-60
2023/05/03 03:34:15;;;;;;;3.25;2.88;;;;;;;7.00;100.00;99920.09;5160064;27;20085;-62
2023/05/03 03:36:40;;;;;;;3.67;2.72;;;;;;;7.15;100.00;99944.09;5160259;27;20050;-64
2023/05/03 03:39:06;;;;;;;5.00;3.22;;;;;;;7.18;100.00;99950.84;5159868;27;20089;-63
2023/05/03 03:41:32;;;;;;;4.63;3.30;;;;;;;6.95;100.00;99947.50;5160121;27;20051;-62
2023/05/03 03:43:59;;;;;;;4.82;3.10;;;;;;;7.13;100.00;99937.34;5159972;27;20042;-59
2023/05/03 03:46:25;;;;;;;4.53;3.58;;;;;;;7.12;100.00;99935.78;5159582;27;20435;-58
2023/05/03 03:48:51;;;;;;;3.80;3.33;;;;;;;7.18;100.00;99920.84;5159537;27;20101;-58
2023/05/03 03:51:17;;;;;;;3.45;2.63;;;;;;;7.01;100.00;99917.03;5159716;27;20058;-55
2023/05/03 03:53:42;;;;;;;5.95;3.63;;;;;;;6.83;100.00;99921.69;5159703;27;20099;-53
2023/05/03 03:56:08;;;;;;;3.60;2.63;;;;;;;6.88;100.00;99928.91;5159442;27;20098;-54
2023/05/03 03:58:35;;;;;;;5.47;3.20;;;;;;;7.01;100.00;99932.56;5159886;27;20150;-55
2023/05/03 04:01:01;;;;;;;5.15;3.00;;;;;;;7.02;100.00;99937.69;5159330;27;20051;-58
2023/05/03 04:03:27;;;;;;;5.63;2.67;;;;;;;6.95;100.00;99942.84;5159828;27;20043;-55
2023/05/03 04:05:53;;;;;;;6.45;3.00;;;;;;;6.69;100.00;99956.44;5159298;27;20150;-53
2023/05/03 04:08:19;;;;;;;3.80;2.75;;;;;;;7.18;100.00;99967.22;5159300;27;20301;-54
2023/05/03 04:10:45;;;;;;;4.00;3.17;;;;;;;7.22;100.00;99982.59;5159090;27;20141;-58
2023/05/03 04:13:11;;;;;;;5.53;3.45;;;;;;;7.15;100.00;99985.00;5159445;27;20051;-58
2023/05/03 04:15:37;;;;;;;3.70;2.70;;;;;;;7.06;100.00;99997.84;5159201;27;20053;-62
2023/05/03 04:18:04;;;;;;;4.68;3.13;;;;;;;7.09;100.00;99975.38;5159127;27;20086;-61
2023/05/03 04:20:31;;;;;;;4.20;2.97;;;;;;;6.84;100.00;99958.72;5159389;27;20058;-56
2023/05/03 04:22:57;;;;;;;3.90;2.70;;;;;;;6.79;100.00;99947.97;5159206;27;20111;-55
2023/05/03 04:25:24;;;;;;;5.53;3.15;;;;;;;6.58;100.00;99938.81;5159339;27;20346;-54
2023/05/03 04:27:50;;;;;;;5.60;2.97;;;;;;;6.66;100.00;99897.16;5159055;27;20050;-59
2023/05/03 04:30:16;;;;;;;4.60;2.88;;;;;;;6.90;100.00;99887.66;5159307;27;20134;-56
2023/05/03 04:32:43;;;;;;;3.97;3.10;;;;;;;6.82;100.00;99883.84;5158931;27;20313;-61
2023/05/03 04:35:11;;;;;;;6.80;3.10;;;;;;;6.78;100.00;99878.22;5159194;27;20471;-62
2023/05/03 04:37:37;;;;;;;3.20;2.90;;;;;;;6.89;100.00;99903.22;5158800;27;20043;-64
2023/05/03 04:40:07;;;;;;;2.97;2.67;;;;;;;6.84;100.00;99900.69;5159116;27;20133;-56
2023/05/03 04:42:33;;;;;;;3.45;2.72;;;;;;;6.96;100.00;99895.34;5158613;27;20046;-55
2023/05/03 04:44:59;;;;;;;5.43;2.72;;;;;;;7.12;100.00;99894.88;5158531;27;20463;-54
2023/05/03 04:47:25;;;;;;;2.60;2.40;;;;;;;6.74;100.00;99914.63;5158971;27;20085;-61
2023/05/03 04:49:51;;;;;;;3.03;2.60;;;;;;;6.71;100.00;99929.69;5158509;27;20444;-63
2023/05/03 04:52:17;;;;;;;5.30;2.80;;;;;;;6.68;100.00;99932.25;5158710;27;20051;-63
2023/05/03 04:54:44;;;;;;;3.17;2.35;;;;;;;6.79;100.00;99942.50;5158372;27;20507;-62
2023/05/03 04:57:10;;;;;;;4.72;2.80;;;;;;;6.71;100.00;99947.97;5158560;27;20042;-58
2023/05/03 04:59:36;;;;;;;3.20;2.63;;;;;;;6.62;100.00;99947.16;5157527;27;20099;-59
2023/05/03 05:02:02;;;;;;;2.65;2.45;;;;;;;6.53;100.00;99934.34;5158719;27;20308;-62
2023/05/03 05:04:28;;;;;;;3.88;2.92;;;;;;;6.62;100.00;99922.63;5158095;27;20141;-63
2023/05/03 05:06:54;;;;;;;3.80;2.70;;;;;;;6.56;100.00;99922.81;5158496;27;20142;-63
2023/05/03 05:09:21;;;;;;;7.88;2.63;;;;;;;6.55;100.00;99904.84;5157948;27;20042;-58
2023/05/03 05:11:48;;;;;;;3.33;2.80;;;;;;;6.58;100.00;99909.66;5158310;27;20054;-53
2023/05/03 05:14:13;;;;;;;3.83;2.70;;;;;;;6.73;100.00;99913.84;5158210;27;20157;-52
2023/05/03 05:16:39;;;;;;;5.00;2.78;;;;;;;6.95;100.00;99926.47;5158014;27;20372;-58
2023/05/03 05:19:08;;;;;;;3.45;2.75;;;;;;;6.95;100.00;99940.09;5158082;27;20400;-57
2023/05/03 05:21:34;;;;;;;5.13;2.80;;;;;;;7.00;100.00;99950.06;5157885;27;20378;-60
2023/05/03 05:24:00;;;;;;;18.48;3.55;;;;;;;6.96;100.00;99965.44;5158164;27;20142;-60
2023/05/03 05:26:27;;;;;;;5.70;3.03;;;;;;;6.68;100.00;99960.31;5157943;27;20052;-61
2023/05/03 05:28:53;;;;;;;4.07;3.08;;;;;;;6.62;100.00;99955.34;5158375;27;20072;-61
2023/05/03 05:31:19;;;;;;;7.03;2.97;;;;;;;6.86;100.00;99944.75;5157803;27;20118;-61
2023/05/03 05:33:45;;;;;;;7.10;3.10;;;;;;;6.55;100.00;99942.19;5158093;27;20051;-57
2023/05/03 05:36:11;;;;;;;3.25;2.65;;;;;;;6.51;100.00;99933.84;5157680;27;20089;-60
2023/05/03 05:38:37;;;;;;;5.20;3.30;;;;;;;6.56;100.00;99932.88;5158149;27;20153;-61
2023/05/03 05:41:03;;;;;;;2.95;2.38;;;;;;;6.39;100.00;99927.41;5157903;27;20043;-56
2023/05/03 05:43:30;;;;;;;3.05;2.58;;;;;;;6.49;100.00;99933.34;5157866;27;20138;-52
2023/05/03 05:45:56;;;;;;;4.45;2.47;;;;;;;6.64;100.00;99940.28;5157875;27;20047;-52
2023/05/03 05:48:21;;;;;;;2.67;2.47;;;;;;;6.47;100.00;99964.78;5157475;27;20058;-55
2023/05/03 05:50:47;;;;;;;3.67;2.65;;;;;;;6.62;100.00;99972.47;5157805;27;20146;-57
2023/05/03 05:53:13;;;;;;;7.15;2.78;;;;;;;6.51;100.00;99987.53;5157487;27;20049;-60
2023/05/03 05:55:39;;;;;;;3.58;2.90;;;;;;;6.65;100.00;99984.66;5157856;27;20042;-60
2023/05/03 05:58:05;;;;;;;6.40;2.40;;;;;;;6.28;100.00;100009.41;5157449;27;20305;-58
2023/05/03 06:00:32;;;;;;;3.95;2.40;;;;;;;6.62;100.00;100010.63;5157565;27;20133;-52
2023/05/03 06:02:58;;;;;;;4.90;2.97;;;;;;;6.40;100.00;100030.59;5157162;27;20404;-57
2023/05/03 06:05:24;;;;;;;6.82;3.22;;;;;;;6.47;100.00;100041.84;5157705;27;20046;-55
2023/05/03 06:07:50;;;;;;;6.72;3.25;;;;;;;6.32;100.00;100031.38;5157049;27;20050;-58
2023/05/03 06:10:16;;;;;;;5.47;3.42;;;;;;;6.46;100.00;100031.25;5157940;27;20383;-58
2023/05/03 06:12:42;;;;;;;4.85;3.00;;;;;;;6.25;100.00;100059.06;5161160;27;20065;-60
2023/05/03 06:15:08;;;;;;;2.92;2.40;;;;;;;6.21;100.00;100068.97;5161409;27;20053;-59
2023/05/03 06:17:35;;;;;;;4.47;2.80;;;;;;;6.01;100.00;100075.75;5161248;27;20050;-59
2023/05/03 06:20:01;;;;;;;3.42;2.55;;;;;;;6.10;100.00;100084.78;5160659;27;20443;-62
2023/05/03 06:22:27;;;;;;;2.05;1.70;;;;;;;6.08;100.00;100116.94;5161132;27;20061;-60
2023/05/03 06:24:54;;;;;;;2.25;1.85;;;;;;;5.94;100.00;100145.38;5160835;27;20102;-59
2023/05/03 06:27:20;;;;;;;1.60;1.50;;;;;;;5.85;100.00;100164.31;5160890;27;20102;-58
2023/05/03 06:29:46;;;;;;;2.38;1.80;;;;;;;5.82;100.00;100176.63;5160557;27;20051;-54
2023/05/03 06:32:12;;;;;;;2.25;1.73;;;;;;;5.70;100.00;100186.44;5160546;27;20146;-62
2023/05/03 06:34:39;;;;;;;5.22;1.90;;;;;;;5.84;100.00;100182.56;5160873;27;20332;-57
2023/05/03 06:37:05;;;;;;;5.25;1.90;;;;;;;6.11;100.00;100175.44;5160750;27;20047;-61
2023/05/03 06:39:31;;;;;;;3.85;2.35;;;;;;;6.29;100.00;100176.31;5160613;27;20047;-55
2023/05/03 06:41:57;;;;;;;2.38;2.10;;;;;;;6.41;100.00;100179.28;5160491;27;20396;-52
2023/05/03 06:44:23;;;;;;;6.38;2.20;;;;;;;6.27;100.00;100194.91;5160208;27;20138;-57
2023/05/03 06:46:48;;;;;;;4.95;2.15;;;;;;;6.26;100.00;100185.13;5160441;27;20082;-55
2023/05/03 06:49:14;;;;;;;2.63;2.15;;;;;;;6.35;100.00;100175.09;5160404;27;20089;-55
2023/05/03 06:51:41;;;;;;;3.35;1.98;;;;;;;6.16;100.00;100177.19;5160143;27;20413;-57
2023/05/03 06:54:08;;;;;;;3.13;2.13;;;;;;;6.30;100.00;100175.22;5160310;27;20065;-53
2023/05/03 06:56:35;;;;;;;2.33;1.95;;;;;;;6.56;100.00;100191.69;5160001;27;20085;-55
2023/05/03 06:59:01;;;;;;;3.25;1.92;;;;;;;6.41;100.00;100219.34;5160128;27;20391;-54
2023/05/03 07:01:27;;;;;;;2.78;1.92;;;;;;;6.30;100.00;100226.97;5159880;27;20058;-53
2023/05/03 07:03:53;;;;;;;5.18;1.60;;;;;;;6.56;100.00;100230.66;5160354;27;20065;-59
2023/05/03 07:06:19;;;;;;;2.58;1.60;;;;;;;6.58;100.00;100227.63;5159807;27;20374;-61
2023/05/03 07:08:45;;;;;;;1.70;1.30;;;;;;;6.47;100.00;100237.19;5159886;27;20061;-61
2023/05/03 07:11:11;;;;;;;1.77;1.48;;;;;;;6.67;100.00;100241.31;5160166;27;20390;-62
2023/05/03 07:13:37;;;;;;;1.85;1.50;;;;;;;6.72;100.00;100249.31;5159821;27;20053;-62
2023/05/03 07:16:04;;;;;;;6.75;1.58;;;;;;;6.76;100.00;100253.81;5159839;27;20043;-56
2023/05/03 07:18:30;;;;;;;1.60;1.50;;;;;;;7.09;100.00;100239.88;5159738;27;20439;-55
2023/05/03 07:20:56;;;;;;;2.17;1.60;;;;;;;7.29;100.00;100250.22;5159649;27;20152;-54
2023/05/03 07:23:22;;;;;;;1.50;1.35;;;;;;;7.91;100.00;100249.22;5159021;27;20062;-61
2023/05/03 07:25:48;;;;;;;4.90;1.50;;;;;;;8.32;100.00;100168.69;5159794;27;20137;-61
2023/05/03 07:28:15;;;;;;;2.50;1.30;;;;;;;8.39;100.00;99991.41;5159407;27;20440;-61
2023/05/03 07:30:41;;;;;;;1.13;1.13;;;;;;;8.40;100.00;99820.09;5160024;27;20054;-55
2023/05/03 07:33:07;;;;;;;1.60;1.13;;;;;;;8.12;100.00;99669.56;5159488;27;20411;-55
2023/05/03 07:35:33;;;;;;;1.38;1.27;;;;;;;8.21;100.00;99701.13;5160022;27;20137;-56
2023/05/03 07:37:59;;;;;;;1.13;1.10;;;;;;;8.30;100.00;99665.56;5159842;27;20086;-57
2023/05/03 07:40:27;;;;;;;3.63;1.30;;;;;;;8.50;100.00;99579.22;5159508;27;20143;-62
2023/05/03 07:42:54;;;;;;;1.00;1.00;;;;;;;8.15;100.00;99333.78;5159656;27;20058;-53
2023/05/03 07:45:20;;;;;;;2.22;1.08;;;;;;;8.50;100.00;99251.31;5159592;27;20141;-56
2023/05/03 07:47:46;;;;;;;1.10;1.00;;;;;;;8.54;100.00;99142.91;5159568;27;20061;-54
2023/05/03 07:50:11;;;;;;;1.33;1.23;;;;;;;8.55;100.00;99110.91;5159265;27;20541;-57
2023/05/03 07:52:38;;;;;;;5.38;1.25;;;;;;;8.53;100.00;99094.06;5159590;27;20050;-60
2023/05/03 07:55:06;;;;;;;1.08;1.08;;;;;;;8.77;100.00;99000.97;5159225;27;20141;-61
2023/05/03 07:57:32;;;;;;;1.25;1.00;;;;;;;9.28;100.00;98967.25;5159244;27;20130;-62
2023/05/03 07:59:58;;;;;;;1.20;1.10;;;;;;;9.75;100.00;98853.94;5159088;27;20061;-57
2023/05/03 08:02:24;;;;;;;1.00;1.00;;;;;;;9.52;100.00;98823.84;5159346;27;20061;-61
2023/05/03 08:04:50;;;;;;;1.90;1.30;;;;;;;10.07;100.00;98832.53;5158713;27;20050;-58
2023/05/03 08:07:16;;;;;;;2.22;1.17;;;;;;;10.73;100.00;98831.09;5158907;27;20058;-60
2023/05/03 08:09:42;;;;;;;1.08;1.02;;;;;;;10.49;100.00;98894.59;5159136;27;20141;-63
2023/05/03 08:12:08;;;;;;;1.35;1.25;;;;;;;10.27;100.00;98888.81;5159137;27;20050;-63
2023/05/03 08:14:35;;;;;;;1.35;1.20;;;;;;;9.85;100.00;98895.16;5159112;27;20050;-61
2023/05/03 08:17:03;;;;;;;3.40;1.75;;;;;;;11.08;100.00;98849.09;5158770;27;20380;-64
2023/05/03 08:19:29;;;;;;;4.63;1.67;;;;;;;11.63;100.00;98952.75;5159122;27;20047;-54
2023/05/03 08:21:55;;;;;;;3.85;1.27;;;;;;;12.20;100.00;99025.56;5158755;27;20062;-58
2023/05/03 08:24:22;;;;;;;7.47;2.53;;;;;;;12.61;100.00;99057.72;5159132;27;20206;-62
2023/05/03 08:26:48;;;;;;;2.85;1.40;;;;;;;11.91;100.00;99172.06;5158616;27;20043;-59
2023/05/03 08:29:14;;;;;;;1.45;1.30;;;;;;;12.45;100.00;99165.19;5159103;27;20106;-62
2023/05/03 08:31:40;;;;;;;1.75;1.13;;;;;;;12.04;100.00;99236.59;5158583;27;20054;-57
2023/05/03 08:34:09;;;;;;;3.35;1.40;;;;;;;11.92;100.00;99232.09;5157902;27;20081;-55
2023/05/03 08:36:37;;;;;;;5.40;1.75;;;;;;;12.01;100.00;99185.91;5158777;27;20051;-59
2023/05/03 08:39:05;;;;;;;1.67;1.33;;;;;;;12.58;100.00;99235.25;5158725;27;20062;-56
2023/05/03 08:41:31;;;;;;;1.35;1.25;;;;;;;13.39;100.00;99313.53;5158438;27;20327;-57
2023/05/03 08:43:59;;;;;;;11.18;1.48;;;;;;;14.22;100.00;99290.88;5158705;27;20339;-64
2023/05/03 08:46:26;;;;;;;1.70;1.50;;;;;;;14.72;100.00;99390.47;5158887;27;20051;-57
2023/05/03 08:48:53;;;;;;;1.58;1.00;;;;;;;15.03;100.00;99433.19;5158308;27;20408;-64
2023/05/03 08:51:20;;;;;;;1.42;1.33;;;;;;;15.01;100.00;99451.31;5158687;27;20137;-57
2023/05/03 08:53:46;;;;;;;1.40;1.00;;;;;;;15.62;100.00;99455.06;5158397;27;20050;-58
2023/05/03 08:56:20;;;;;;;1.13;1.02;;;;;;;14.64;100.00;99487.41;5158711;27;20047;-63
2023/05/03 08:58:46;;;;;;;;;;;;;;;15.81;99.82;99478.84;5158510;27;20385;-62
2023/05/03 09:01:13;;;;;;;1.52;1.25;;;;;;;13.64;100.00;99440.47;5158104;27;20018;-57
2023/05/03 09:03:39;;;;;;;1.80;1.50;;;;;;;14.63;100.00;99434.19;5157829;27;20069;-57
2023/05/03 09:06:18;;;;;;;1.17;1.17;;;;;;;15.83;100.00;99454.34;5158217;27;20055;-61
2023/05/03 09:08:45;;;;;;;1.38;1.10;;;;;;;15.62;100.00;99465.34;5158380;27;20097;-59
2023/05/03 09:11:20;;;;;;;1.58;0.90;;;;;;;14.85;100.00;99476.47;5158195;27;20141;-58
2023/05/03 09:13:46;;;;;;;4.88;1.52;;;;;;;15.06;100.00;99460.03;5158234;27;20059;-59
2023/05/03 09:16:22;;;;;;;1.60;1.50;;;;;;;15.41;100.00;99452.25;5158997;27;20085;-68
2023/05/03 09:18:56;;;;;;;1.85;1.10;;;;;;;15.53;100.00;99463.75;5159928;27;20159;-62
2023/05/03 09:21:22;;;;;;;23.55;9.05;;;;;;;14.15;100.00;99447.22;5157843;27;20042;-59
2023/05/03 09:23:48;;;;;;;2.40;1.08;;;;;;;14.26;100.00;99429.59;5157787;27;20130;-56
2023/05/03 09:26:27;;;;;;;1.63;1.38;;;;;;;13.90;100.00;99439.53;5157584;27;20197;-57
2023/05/03 09:28:53;;;;;;;1.95;1.27;;;;;;;13.24;100.00;99447.53;5157487;27;20080;-56
2023/05/03 09:31:19;;;;;;;3.60;1.65;;;;;;;12.58;100.00;99410.47;5157376;27;20047;-65
2023/05/03 09:33:45;;;;;;;2.45;1.33;;;;;;;13.59;100.00;99399.47;5156956;27;20422;-53
2023/05/03 09:36:11;;;;;;;1.30;1.20;;;;;;;13.65;100.00;99436.53;5158043;27;20050;-61
2023/05/03 09:38:37;;;;;;;5.20;1.10;;;;;;;14.09;100.00;99444.00;5157218;27;20392;-61
2023/05/03 09:41:05;;;;;;;1.20;1.10;;;;;;;13.89;100.00;99429.66;5157163;27;20051;-64
2023/05/03 09:43:31;;;;;;;1.50;1.40;;;;;;;14.12;100.00;99438.50;5156964;27;20054;-55
2023/05/03 09:46:08;;;;;;;5.25;1.75;;;;;;;13.84;100.00;99444.59;5159196;27;20360;-60
2023/05/03 09:48:35;;;;;;;1.50;1.17;;;;;;;13.14;100.00;99462.72;5160647;27;20114;-57
2023/05/03 09:51:03;;;;;;;5.18;1.40;;;;;;;13.78;100.00;99456.34;5160780;27;20319;-60
2023/05/03 09:53:30;;;;;;;1.55;1.27;;;;;;;13.96;100.00;99482.13;5160834;27;20123;-57
2023/05/03 09:55:56;;;;;;;1.33;1.23;;;;;;;14.17;99.36;99486.22;5160460;27;20137;-63
2023/05/03 09:58:24;;;;;;;1.42;1.17;;;;;;;13.06;98.25;99509.78;5161239;27;20217;-63
2023/05/03 10:00:51;;;;;;;2.25;1.58;;;;;;;13.69;100.00;99473.16;5160835;27;20054;-56
2023/05/03 10:03:23;;;;;;;2.42;1.50;;;;;;;12.60;100.00;99461.22;5161273;27;20051;-63
2023/05/03 10:05:50;;;;;;;1.38;1.23;;;;;;;13.32;100.00;99465.69;5160876;27;20046;-65
2023/05/03 10:08:23;;;;;;;2.80;1.38;;;;;;;14.03;100.00;99490.44;5161135;27;20046;-68
2023/05/03 10:10:51;;;;;;;6.97;1.42;;;;;;;15.04;84.79;99520.38;5160803;27;20477;-65
2023/05/03 10:13:17;;;;;;;1.95;1.33;;;;;;;14.96;81.15;99518.75;5160498;27;20046;-65
2023/05/03 10:15:45;;;;;;;1.77;1.33;;;;;;;14.44;83.13;99520.72;5160098;27;20054;-60
2023/05/03 10:18:16;;;;;;;5.63;1.40;;;;;;;15.46;81.54;99527.28;5160584;27;20055;-61
2023/05/03 10:20:49;;;;;;;2.05;1.40;;;;;;;15.47;83.53;99509.50;5160414;27;20427;-61
2023/05/03 10:23:17;;;;;;;3.30;1.52;;;;;;;16.22;77.41;99528.25;5160329;27;20058;-53
2023/05/03 10:26:13;;;;;;;2.20;1.83;;;;;;;15.81;77.77;99531.34;5160667;27;20057;-55
2023/05/03 10:28:40;;;;;;;2.35;1.70;;;;;;;16.09;77.32;99524.28;5160153;27;20138;-61
2023/05/03 10:31:46;;;;;;;2.53;1.38;;;;;;;15.82;77.84;99537.66;5160575;27;20141;-61
2023/05/03 10:34:22;;;;;;;3.58;1.50;;;;;;;15.63;79.01;99536.03;5160594;27;20137;-56
2023/05/03 10:36:51;;;;;;;2.55;1.60;;;;;;;15.51;81.10;99532.41;5159961;27;20057;-54
2023/05/03 10:39:18;;;;;;;2.25;1.38;;;;;;;14.70;67.66;99549.34;5160099;27;20047;-57
2023/05/03 10:41:44;;;;;;;2.72;1.30;;;;;;;15.28;70.84;99540.22;5159900;27;20114;-58
2023/05/03 10:44:25;;;;;;;2.40;1.48;;;;;;;15.17;74.30;99544.91;5160259;27;20050;-58
2023/05/03 10:46:53;;;;;;;2.45;1.30;;;;;;;15.13;68.56;99553.16;5159749;27;20434;-55
2023/05/03 10:49:20;;;;;;;6.10;1.30;;;;;;;15.39;65.74;99554.06;5159907;27;20118;-61
2023/05/03 10:51:47;;;;;;;2.80;1.02;;;;;;;14.80;72.92;99540.34;5159621;27;20459;-58
2023/05/03 10:54:13;;;;;;;2.40;1.90;;;;;;;15.36;75.36;99533.56;5159663;27;20057;-56
2023/05/03 10:56:53;;;;;;;1.80;1.10;;;;;;;15.33;77.04;99530.75;5158923;27;20107;-63
2023/05/03 10:59:19;;;;;;;2.42;1.00;;;;;;;15.28;71.52;99535.47;5159505;27;20090;-58
2023/05/03 11:01:49;;;;;;;2.78;1.17;;;;;;;15.69;71.77;99540.00;5159928;27;20395;-58
2023/05/03 11:04:39;;;;;;;2.75;1.30;;;;;;;14.97;72.17;99542.41;5159948;27;20527;-57
2023/05/03 11:07:05;;;;;;;5.30;1.25;;;;;;;14.90;74.71;99533.31;5159767;27;20397;-61
2023/05/03 11:09:32;;;;;;;1.95;1.23;;;;;;;15.45;73.78;99536.72;5159748;27;20047;-66
2023/05/03 11:12:02;;;;;;;3.13;1.08;;;;;;;14.75;69.66;99541.47;5160176;27;20086;-59
2023/05/03 11:14:28;;;;;;;2.80;1.05;;;;;;;14.85;68.17;99545.47;5160066;27;20050;-69
2023/05/03 11:16:56;;;;;;;4.70;0.90;;;;;;;14.67;64.99;99545.38;5159627;27;20363;-69
2023/05/03 11:19:23;;;;;;;1.98;1.23;;;;;;;14.76;65.66;99539.50;5159810;27;20096;-64
2023/05/03 11:21:50;;;;;;;1.10;0.90;;;;;;;14.85;67.01;99544.69;5159914;27;20058;-70
2023/05/03 11:24:16;;;;;;;3.40;1.00;;;;;;;14.58;68.98;99547.66;5160146;27;20463;-61
2023/05/03 11:26:42;;;;;;;1.02;0.93;;;;;;;14.85;67.90;99548.25;5159592;27;20047;-68